createdAt,value
2016-12-29T00:00:42.270Z,58.73
2016-12-29T00:01:53.191Z,58.83
2016-12-29T00:03:04.077Z,58.73
2016-12-29T00:04:15.422Z,58.73
2016-12-29T00:05:26.951Z,58.73
2016-12-29T00:06:37.419Z,58.54
2016-12-29T00:07:47.889Z,58.45
2016-12-29T00:08:58.782Z,58.83
2016-12-29T00:10:09.719Z,58.83
2016-12-29T00:11:20.664Z,58.93
2016-12-29T00:12:31.569Z,58.83
2016-12-29T00:13:42.887Z,58.73
2016-12-29T00:14:53.780Z,58.93
2016-12-29T00:16:04.681Z,58.64
2016-12-29T00:17:16.054Z,58.64
2016-12-29T00:18:26.948Z,58.54
2016-12-29T00:19:38.281Z,58.36
2016-12-29T00:20:49.610Z,58.45
2016-12-29T00:22:00.067Z,58.36
2016-12-29T00:23:11.544Z,58.54
2016-12-29T00:24:22.858Z,58.64
2016-12-29T00:25:34.186Z,58.54
2016-12-29T00:26:45.116Z,58.64
2016-12-29T00:27:56.013Z,58.54
2016-12-29T00:29:07.378Z,58.54
2016-12-29T00:30:18.704Z,59.02
2016-12-29T00:31:29.597Z,58.54
2016-12-29T00:32:40.066Z,58.54
2016-12-29T00:33:51.387Z,58.54
2016-12-29T00:35:02.920Z,58.36
2016-12-29T00:36:13.813Z,59.22
2016-12-29T00:37:25.138Z,59.02
2016-12-29T00:38:36.464Z,58.83
2016-12-29T00:39:47.785Z,58.83
2016-12-29T00:40:58.307Z,58.83
2016-12-29T00:42:09.199Z,58.54
2016-12-29T00:43:20.520Z,58.83
2016-12-29T00:44:30.983Z,59.02
2016-12-29T00:45:41.883Z,58.36
2016-12-29T00:46:53.248Z,58.45
2016-12-29T00:48:04.561Z,58.83
2016-12-29T00:49:15.883Z,59.02
2016-12-29T00:50:27.204Z,58.83
2016-12-29T00:51:38.097Z,58.83
2016-12-29T00:52:49.042Z,58.83
2016-12-29T00:53:59.959Z,59.22
2016-12-29T00:55:11.280Z,59.02
2016-12-29T00:56:22.174Z,58.83
2016-12-29T00:57:33.067Z,58.83
2016-12-29T00:58:44.452Z,59.02
2016-12-29T00:59:55.345Z,58.83
2016-12-29T01:01:06.238Z,59.02
2016-12-29T01:02:16.703Z,58.83
2016-12-29T01:03:27.597Z,59.22
2016-12-29T01:04:38.542Z,58.83
2016-12-29T01:05:49.439Z,58.83
2016-12-29T01:07:00.344Z,59.02
2016-12-29T01:08:11.241Z,59.02
2016-12-29T01:09:22.131Z,59.22
2016-12-29T01:10:33.084Z,58.83
2016-12-29T01:11:43.985Z,58.83
2016-12-29T01:12:54.886Z,59.22
2016-12-29T01:14:06.212Z,59.31
2016-12-29T01:15:17.117Z,59.22
2016-12-29T01:16:28.494Z,59.31
2016-12-29T01:17:39.811Z,59.22
2016-12-29T01:18:50.284Z,59.22
2016-12-29T01:20:01.173Z,59.41
2016-12-29T01:21:12.499Z,59.31
2016-12-29T01:22:23.868Z,59.31
2016-12-29T01:23:34.765Z,59.22
2016-12-29T01:24:45.658Z,59.41
2016-12-29T01:25:56.548Z,59.31
2016-12-29T01:27:07.449Z,59.22
2016-12-29T01:28:18.402Z,59.31
2016-12-29T01:29:29.723Z,59.31
2016-12-29T01:30:40.624Z,59.31
2016-12-29T01:31:51.521Z,59.22
2016-12-29T01:33:02.839Z,59.22
2016-12-29T01:34:13.796Z,59.02
2016-12-29T01:35:24.689Z,59.22
2016-12-29T01:36:36.005Z,59.31
2016-12-29T01:37:46.479Z,59.41
2016-12-29T01:38:57.381Z,59.22
2016-12-29T01:40:08.758Z,59.22
2016-12-29T01:41:19.731Z,59.31
2016-12-29T01:42:31.052Z,59.41
2016-12-29T01:43:41.941Z,59.31
2016-12-29T01:44:53.266Z,59.41
2016-12-29T01:46:04.667Z,59.31
2016-12-29T01:47:15.565Z,59.12
2016-12-29T01:48:26.454Z,59.31
2016-12-29T01:49:37.771Z,59.12
2016-12-29T01:50:48.669Z,59.31
2016-12-29T01:51:59.621Z,59.31
2016-12-29T01:53:10.940Z,59.41
2016-12-29T01:54:21.840Z,59.41
2016-12-29T01:55:33.163Z,59.31
2016-12-29T01:56:44.062Z,59.31
2016-12-29T01:57:55.007Z,59.31
2016-12-29T01:59:05.909Z,59.02
2016-12-29T02:00:16.821Z,59.22
2016-12-29T02:01:28.151Z,59.41
2016-12-29T02:02:39.048Z,59.22
2016-12-29T02:03:49.997Z,59.41
2016-12-29T02:05:00.907Z,59.31
2016-12-29T02:06:12.228Z,59.41
2016-12-29T02:07:23.121Z,59.02
2016-12-29T02:08:34.446Z,59.02
2016-12-29T02:09:45.535Z,59.31
2016-12-29T02:10:56.857Z,59.31
2016-12-29T02:12:08.182Z,59.22
2016-12-29T02:13:19.075Z,59.02
2016-12-29T02:14:30.400Z,59.22
2016-12-29T02:15:41.346Z,59.02
2016-12-29T02:16:52.691Z,59.12
2016-12-29T02:18:03.584Z,59.41
2016-12-29T02:19:14.486Z,59.12
2016-12-29T02:20:25.802Z,59.22
2016-12-29T02:21:36.348Z,59.31
2016-12-29T02:22:47.245Z,59.41
2016-12-29T02:23:58.146Z,59.31
2016-12-29T02:25:09.467Z,59.22
2016-12-29T02:26:20.364Z,59.22
2016-12-29T02:27:31.337Z,59.31
2016-12-29T02:28:42.230Z,59.31
2016-12-29T02:29:53.124Z,59.22
2016-12-29T02:31:04.457Z,59.22
2016-12-29T02:32:15.362Z,59.31
2016-12-29T02:33:26.735Z,59.31
2016-12-29T02:34:38.065Z,59.31
2016-12-29T02:35:49.377Z,59.31
2016-12-29T02:37:00.695Z,59.31
2016-12-29T02:38:11.580Z,59.31
2016-12-29T02:39:22.949Z,59.22
2016-12-29T02:40:33.850Z,59.22
2016-12-29T02:41:44.747Z,59.31
2016-12-29T02:42:56.061Z,59.41
2016-12-29T02:44:06.958Z,59.22
2016-12-29T02:45:17.475Z,59.22
2016-12-29T02:46:28.365Z,59.12
2016-12-29T02:47:39.257Z,59.02
2016-12-29T02:48:50.575Z,59.22
2016-12-29T02:50:01.472Z,59.02
2016-12-29T02:51:12.569Z,59.22
2016-12-29T02:52:23.466Z,59.12
2016-12-29T02:53:34.788Z,59.22
2016-12-29T02:54:46.109Z,59.31
2016-12-29T02:55:56.582Z,59.12
2016-12-29T02:57:07.960Z,59.31
2016-12-29T02:58:18.849Z,59.22
2016-12-29T02:59:29.746Z,59.41
2016-12-29T03:00:41.071Z,59.41
2016-12-29T03:01:51.976Z,59.41
2016-12-29T03:03:03.350Z,59.31
2016-12-29T03:04:14.254Z,59.22
2016-12-29T03:05:25.576Z,59.41
2016-12-29T03:06:36.477Z,59.31
2016-12-29T03:07:47.802Z,59.31
2016-12-29T03:08:58.751Z,59.31
2016-12-29T03:10:10.068Z,59.41
2016-12-29T03:11:21.390Z,59.22
2016-12-29T03:12:32.295Z,59.22
2016-12-29T03:13:43.221Z,58.83
2016-12-29T03:14:54.165Z,59.22
2016-12-29T03:16:05.499Z,59.31
2016-12-29T03:17:16.392Z,58.83
2016-12-29T03:18:27.293Z,58.83
2016-12-29T03:19:38.618Z,58.83
2016-12-29T03:20:49.555Z,58.83
2016-12-29T03:22:00.877Z,58.83
2016-12-29T03:23:11.778Z,58.73
2016-12-29T03:24:22.675Z,58.93
2016-12-29T03:25:34.004Z,58.83
2016-12-29T03:26:45.385Z,58.83
2016-12-29T03:27:56.703Z,59.22
2016-12-29T03:29:07.596Z,59.02
2016-12-29T03:30:18.917Z,59.02
2016-12-29T03:31:30.242Z,58.83
2016-12-29T03:32:41.187Z,59.02
2016-12-29T03:33:52.512Z,59.02
2016-12-29T03:35:03.838Z,58.93
2016-12-29T03:36:14.739Z,58.83
2016-12-29T03:37:26.060Z,58.99
2016-12-29T03:38:37.490Z,58.83
2016-12-29T03:39:47.970Z,59.02
2016-12-29T03:40:59.292Z,58.83
2016-12-29T03:42:10.182Z,59.02
2016-12-29T03:43:21.078Z,59.02
2016-12-29T03:44:32.459Z,59.02
2016-12-29T03:45:43.785Z,58.83
2016-12-29T03:46:55.114Z,58.83
2016-12-29T03:48:06.016Z,58.54
2016-12-29T03:49:17.336Z,58.45
2016-12-29T03:50:28.705Z,59.02
2016-12-29T03:51:39.595Z,58.45
2016-12-29T03:52:50.492Z,58.83
2016-12-29T03:54:01.401Z,58.83
2016-12-29T03:55:12.290Z,58.54
2016-12-29T03:56:23.671Z,59.02
2016-12-29T03:57:34.989Z,58.83
2016-12-29T03:58:45.462Z,58.42
2016-12-29T03:59:56.811Z,58.36
2016-12-29T04:01:08.140Z,58.45
2016-12-29T04:02:19.557Z,58.64
2016-12-29T04:03:30.895Z,58.36
2016-12-29T04:04:41.796Z,58.64
2016-12-29T04:05:52.697Z,58.83
2016-12-29T04:07:03.598Z,58.45
2016-12-29T04:08:14.595Z,58.64
2016-12-29T04:09:25.912Z,59.02
2016-12-29T04:10:36.374Z,58.64
2016-12-29T04:11:47.279Z,58.45
2016-12-29T04:12:58.172Z,58.54
2016-12-29T04:14:09.217Z,58.64
2016-12-29T04:15:20.535Z,58.54
2016-12-29T04:16:31.428Z,58.64
2016-12-29T04:17:42.749Z,58.64
2016-12-29T04:18:53.242Z,59.02
2016-12-29T04:20:04.187Z,58.73
2016-12-29T04:21:15.516Z,59.02
2016-12-29T04:22:26.413Z,58.54
2016-12-29T04:23:37.734Z,58.64
2016-12-29T04:24:48.664Z,58.54
2016-12-29T04:26:00.041Z,58.54
2016-12-29T04:27:11.366Z,58.9
2016-12-29T04:28:22.264Z,58.54
2016-12-29T04:29:32.753Z,58.42
2016-12-29T04:30:44.082Z,58.64
2016-12-29T04:31:55.463Z,58.73
2016-12-29T04:33:06.356Z,58.73
2016-12-29T04:34:17.678Z,58.64
2016-12-29T04:35:28.575Z,58.83
2016-12-29T04:36:39.468Z,58.51
2016-12-29T04:37:50.565Z,58.33
2016-12-29T04:39:01.467Z,58.64
2016-12-29T04:40:12.787Z,58.73
2016-12-29T04:41:23.685Z,58.64
2016-12-29T04:42:34.150Z,58.83
2016-12-29T04:43:45.547Z,58.73
2016-12-29T04:44:56.016Z,58.36
2016-12-29T04:46:06.910Z,58.73
2016-12-29T04:47:17.795Z,58.83
2016-12-29T04:48:28.684Z,58.7
2016-12-29T04:49:39.633Z,58.45
2016-12-29T04:50:50.958Z,58.73
2016-12-29T04:52:02.283Z,58.83
2016-12-29T04:53:13.185Z,58.7
2016-12-29T04:54:24.089Z,58.73
2016-12-29T04:55:35.459Z,58.73
2016-12-29T04:56:46.360Z,58.73
2016-12-29T04:57:57.257Z,58.73
2016-12-29T04:59:08.578Z,58.61
2016-12-29T05:00:19.475Z,58.7
2016-12-29T05:01:30.845Z,58.83
2016-12-29T05:02:42.162Z,58.7
2016-12-29T05:03:53.067Z,58.73
2016-12-29T05:05:04.400Z,58.73
2016-12-29T05:06:15.309Z,58.83
2016-12-29T05:07:25.874Z,58.73
2016-12-29T05:08:36.772Z,58.73
2016-12-29T05:09:48.089Z,58.73
2016-12-29T05:10:59.446Z,58.73
2016-12-29T05:12:10.763Z,58.73
2016-12-29T05:13:22.165Z,58.8
2016-12-29T05:14:33.486Z,58.61
2016-12-29T05:15:44.383Z,58.73
2016-12-29T05:16:55.704Z,58.73
2016-12-29T05:18:06.597Z,58.93
2016-12-29T05:19:17.554Z,58.7
2016-12-29T05:20:28.868Z,58.51
2016-12-29T05:21:40.225Z,58.8
2016-12-29T05:22:51.118Z,58.51
2016-12-29T05:24:02.007Z,58.73
2016-12-29T05:25:13.381Z,58.61
2016-12-29T05:26:24.718Z,59.02
2016-12-29T05:27:35.615Z,58.8
2016-12-29T05:28:46.936Z,58.93
2016-12-29T05:29:57.406Z,58.9
2016-12-29T05:31:08.451Z,58.9
2016-12-29T05:32:19.776Z,58.8
2016-12-29T05:33:30.673Z,58.9
2016-12-29T05:34:41.570Z,58.93
2016-12-29T05:35:52.896Z,58.93
2016-12-29T05:37:03.836Z,58.9
2016-12-29T05:38:14.722Z,58.8
2016-12-29T05:39:25.643Z,58.9
2016-12-29T05:40:36.960Z,58.51
2016-12-29T05:41:47.453Z,58.9
2016-12-29T05:42:58.402Z,58.73
2016-12-29T05:44:09.728Z,58.61
2016-12-29T05:45:21.053Z,58.73
2016-12-29T05:46:31.974Z,58.7
2016-12-29T05:47:43.299Z,58.73
2016-12-29T05:48:54.244Z,58.8
2016-12-29T05:50:05.566Z,58.7
2016-12-29T05:51:16.895Z,58.7
2016-12-29T05:52:27.792Z,58.7
2016-12-29T05:53:39.117Z,58.8
2016-12-29T05:54:50.490Z,58.7
2016-12-29T05:56:01.388Z,58.83
2016-12-29T05:57:12.705Z,58.51
2016-12-29T05:58:24.034Z,58.7
2016-12-29T05:59:34.931Z,58.73
2016-12-29T06:00:45.884Z,58.8
2016-12-29T06:01:57.202Z,58.93
2016-12-29T06:03:08.099Z,58.9
2016-12-29T06:04:19.426Z,58.9
2016-12-29T06:05:30.313Z,58.7
2016-12-29T06:06:41.262Z,58.9
2016-12-29T06:07:52.619Z,58.8
2016-12-29T06:09:03.517Z,58.8
2016-12-29T06:10:14.834Z,58.8
2016-12-29T06:11:25.723Z,58.99
2016-12-29T06:12:37.092Z,58.8
2016-12-29T06:13:48.413Z,58.8
2016-12-29T06:14:59.731Z,58.61
2016-12-29T06:16:10.620Z,58.61
2016-12-29T06:17:21.085Z,58.9
2016-12-29T06:18:32.450Z,58.9
2016-12-29T06:19:43.347Z,58.7
2016-12-29T06:20:54.674Z,58.51
2016-12-29T06:22:05.618Z,58.7
2016-12-29T06:23:16.507Z,58.7
2016-12-29T06:24:27.472Z,58.7
2016-12-29T06:25:38.361Z,58.73
2016-12-29T06:26:49.687Z,58.7
2016-12-29T06:28:01.007Z,58.8
2016-12-29T06:29:12.321Z,58.33
2016-12-29T06:30:23.694Z,58.7
2016-12-29T06:31:34.163Z,58.61
2016-12-29T06:32:45.058Z,58.8
2016-12-29T06:33:55.962Z,58.42
2016-12-29T06:35:07.295Z,58.51
2016-12-29T06:36:18.236Z,58.51
2016-12-29T06:37:29.157Z,58.42
2016-12-29T06:38:40.054Z,58.61
2016-12-29T06:39:51.379Z,58.51
2016-12-29T06:41:02.701Z,58.33
2016-12-29T06:42:13.646Z,58.8
2016-12-29T06:43:24.963Z,58.8
2016-12-29T06:44:35.856Z,58.8
2016-12-29T06:45:46.763Z,58.8
2016-12-29T06:46:58.086Z,58.8
2016-12-29T06:48:09.488Z,58.8
2016-12-29T06:49:20.809Z,58.8
2016-12-29T06:50:32.130Z,58.8
2016-12-29T06:51:43.036Z,58.7
2016-12-29T06:52:53.932Z,58.8
2016-12-29T06:54:04.877Z,59.19
2016-12-29T06:55:16.207Z,59.19
2016-12-29T06:56:27.536Z,59.28
2016-12-29T06:57:38.425Z,59.28
2016-12-29T06:58:49.327Z,59.38
2016-12-29T07:00:00.708Z,59.38
2016-12-29T07:01:11.601Z,59.38
2016-12-29T07:02:22.502Z,59.19
2016-12-29T07:03:33.403Z,59.19
2016-12-29T07:04:44.724Z,59.28
2016-12-29T07:05:56.098Z,59.28
2016-12-29T07:07:07.419Z,59.38
2016-12-29T07:08:18.736Z,59.38
2016-12-29T07:09:30.049Z,58.99
2016-12-29T07:10:40.946Z,59.09
2016-12-29T07:11:52.324Z,59.19
2016-12-29T07:13:03.217Z,59.09
2016-12-29T07:14:14.566Z,59.28
2016-12-29T07:15:25.883Z,58.99
2016-12-29T07:16:36.775Z,58.99
2016-12-29T07:17:47.818Z,59.09
2016-12-29T07:18:59.143Z,59.19
2016-12-29T07:20:10.040Z,58.8
2016-12-29T07:21:20.501Z,59.19
2016-12-29T07:22:31.823Z,59.09
2016-12-29T07:23:43.291Z,58.8
2016-12-29T07:24:54.613Z,59.19
2016-12-29T07:26:05.498Z,58.9
2016-12-29T07:27:16.387Z,58.9
2016-12-29T07:28:27.288Z,59.47
2016-12-29T07:29:38.673Z,59.85
2016-12-29T07:30:49.987Z,59.56
2016-12-29T07:32:00.891Z,59.56
2016-12-29T07:33:12.213Z,59.66
2016-12-29T07:34:23.530Z,59.56
2016-12-29T07:35:34.896Z,59.56
2016-12-29T07:36:46.229Z,59.56
2016-12-29T07:37:57.126Z,59.56
2016-12-29T07:39:08.023Z,59.47
2016-12-29T07:40:19.344Z,59.47
2016-12-29T07:41:30.289Z,59.47
2016-12-29T07:42:41.190Z,59.56
2016-12-29T07:43:52.087Z,59.76
2016-12-29T07:45:03.409Z,59.56
2016-12-29T07:46:14.302Z,59.56
2016-12-29T07:47:25.251Z,59.66
2016-12-29T07:48:36.576Z,59.66
2016-12-29T07:49:47.502Z,59.66
2016-12-29T07:50:58.395Z,59.56
2016-12-29T07:52:09.716Z,59.66
2016-12-29T07:53:21.237Z,59.63
2016-12-29T07:54:32.554Z,59.66
2016-12-29T07:55:43.448Z,59.66
2016-12-29T07:56:54.349Z,59.66
2016-12-29T07:58:05.663Z,59.47
2016-12-29T07:59:16.607Z,59.38
2016-12-29T08:00:27.916Z,59.38
2016-12-29T08:01:38.386Z,59.73
2016-12-29T08:02:49.703Z,59.47
2016-12-29T08:04:00.604Z,59.38
2016-12-29T08:05:11.557Z,59.47
2016-12-29T08:06:22.458Z,59.47
2016-12-29T08:07:33.783Z,59.38
2016-12-29T08:08:45.109Z,59.76
2016-12-29T08:09:56.426Z,59.95
2016-12-29T08:11:07.371Z,59.56
2016-12-29T08:12:18.688Z,59.56
2016-12-29T08:13:30.016Z,58.99
2016-12-29T08:14:40.935Z,59.28
2016-12-29T08:15:52.289Z,58.99
2016-12-29T08:17:03.250Z,58.8
2016-12-29T08:18:14.158Z,59.09
2016-12-29T08:19:25.491Z,59.28
2016-12-29T08:20:36.389Z,58.99
2016-12-29T08:21:47.718Z,58.9
2016-12-29T08:22:58.670Z,58.99
2016-12-29T08:24:09.984Z,59.19
2016-12-29T08:25:20.877Z,59.19
2016-12-29T08:26:32.205Z,58.8
2016-12-29T08:27:43.527Z,58.51
2016-12-29T08:28:54.625Z,58.51
2016-12-29T08:30:05.538Z,58.7
2016-12-29T08:31:16.443Z,58.68
2016-12-29T08:32:27.764Z,58.14
2016-12-29T08:33:39.078Z,58.29
2016-12-29T08:34:50.450Z,58.61
2016-12-29T08:36:01.768Z,58.68
2016-12-29T08:37:12.670Z,58.68
2016-12-29T08:38:23.555Z,58.51
2016-12-29T08:39:34.456Z,58.29
2016-12-29T08:40:45.829Z,58.11
2016-12-29T08:41:57.150Z,58.29
2016-12-29T08:43:08.043Z,57.92
2016-12-29T08:44:19.368Z,58.11
2016-12-29T08:45:30.697Z,58.04
2016-12-29T08:46:41.651Z,58.2
2016-12-29T08:47:52.976Z,57.82
2016-12-29T08:49:04.293Z,57.63
2016-12-29T08:50:15.614Z,57.43
2016-12-29T08:51:26.508Z,57.82
2016-12-29T08:52:37.892Z,57.63
2016-12-29T08:53:48.782Z,57.43
2016-12-29T08:55:00.099Z,57.43
2016-12-29T08:56:11.424Z,57.24
2016-12-29T08:57:22.313Z,57.15
2016-12-29T08:58:33.687Z,57.53
2016-12-29T08:59:45.012Z,57.09
2016-12-29T09:00:55.909Z,57.43
2016-12-29T09:02:06.810Z,57.63
2016-12-29T09:03:18.135Z,57.63
2016-12-29T09:04:29.080Z,57.34
2016-12-29T09:05:39.978Z,57.53
2016-12-29T09:06:50.891Z,57.63
2016-12-29T09:08:01.780Z,57.06
2016-12-29T09:09:12.681Z,57.34
2016-12-29T09:10:24.106Z,57.34
2016-12-29T09:11:35.004Z,57.24
2016-12-29T09:12:45.902Z,57.06
2016-12-29T09:13:57.214Z,57.06
2016-12-29T09:15:08.107Z,56.77
2016-12-29T09:16:19.481Z,56.87
2016-12-29T09:17:30.370Z,57.06
2016-12-29T09:18:41.699Z,56.77
2016-12-29T09:19:52.600Z,57.06
2016-12-29T09:21:03.493Z,57.06
2016-12-29T09:22:14.859Z,56.77
2016-12-29T09:23:25.763Z,56.77
2016-12-29T09:24:37.089Z,56.87
2016-12-29T09:25:47.986Z,56.48
2016-12-29T09:26:58.881Z,56.38
2016-12-29T09:28:10.256Z,56.38
2016-12-29T09:29:21.154Z,56.51
2016-12-29T09:30:32.067Z,56.48
2016-12-29T09:31:43.384Z,56.48
2016-12-29T09:32:54.277Z,56.87
2016-12-29T09:34:05.650Z,56.96
2016-12-29T09:35:16.963Z,56.67
2016-12-29T09:36:27.844Z,56.87
2016-12-29T09:37:38.738Z,56.58
2016-12-29T09:38:49.635Z,56.51
2016-12-29T09:40:01.004Z,56.04
2016-12-29T09:41:11.897Z,56.23
2016-12-29T09:42:23.219Z,56.32
2016-12-29T09:43:34.112Z,56.29
2016-12-29T09:44:45.033Z,56.23
2016-12-29T09:45:55.974Z,56.48
2016-12-29T09:47:07.291Z,56.32
2016-12-29T09:48:18.176Z,56.32
2016-12-29T09:49:29.086Z,56.13
2016-12-29T09:50:40.411Z,56.13
2016-12-29T09:51:51.352Z,56.58
2016-12-29T09:53:02.677Z,56.13
2016-12-29T09:54:13.566Z,55.94
2016-12-29T09:55:24.468Z,55.82
2016-12-29T09:56:35.793Z,55.46
2016-12-29T09:57:47.162Z,55.46
2016-12-29T09:58:58.487Z,55.55
2016-12-29T10:00:09.817Z,55.75
2016-12-29T10:01:20.718Z,55.65
2016-12-29T10:02:32.047Z,55.65
2016-12-29T10:03:43.456Z,55.84
2016-12-29T10:04:54.353Z,54.99
2016-12-29T10:06:05.251Z,55.27
2016-12-29T10:07:16.140Z,55.65
2016-12-29T10:08:26.617Z,55.84
2016-12-29T10:09:37.982Z,56.32
2016-12-29T10:10:48.867Z,56.7
2016-12-29T10:11:59.764Z,56.8
2016-12-29T10:13:11.082Z,56.99
2016-12-29T10:14:21.979Z,57.02
2016-12-29T10:15:32.936Z,57.11
2016-12-29T10:16:44.265Z,56.92
2016-12-29T10:17:55.586Z,57.02
2016-12-29T10:19:06.915Z,57.21
2016-12-29T10:20:17.817Z,56.63
2016-12-29T10:21:29.194Z,56.54
2016-12-29T10:22:40.515Z,56.54
2016-12-29T10:23:51.840Z,56.63
2016-12-29T10:25:03.153Z,56.92
2016-12-29T10:26:14.507Z,56.73
2016-12-29T10:27:25.887Z,56.25
2016-12-29T10:28:36.781Z,56.35
2016-12-29T10:29:47.674Z,56.54
2016-12-29T10:30:58.991Z,56.35
2016-12-29T10:32:09.885Z,56.35
2016-12-29T10:33:21.266Z,56.35
2016-12-29T10:34:32.580Z,56.35
2016-12-29T10:35:43.510Z,55.87
2016-12-29T10:36:54.839Z,55.87
2016-12-29T10:38:06.178Z,55.77
2016-12-29T10:39:16.695Z,55.52
2016-12-29T10:40:28.009Z,55.52
2016-12-29T10:41:38.910Z,55.61
2016-12-29T10:42:50.227Z,55.71
2016-12-29T10:44:01.545Z,55.71
2016-12-29T10:45:12.926Z,55.32
2016-12-29T10:46:24.251Z,55.32
2016-12-29T10:47:35.144Z,55.32
2016-12-29T10:48:46.053Z,55.32
2016-12-29T10:49:57.367Z,55.32
2016-12-29T10:51:08.744Z,54.66
2016-12-29T10:52:19.641Z,54.47
2016-12-29T10:53:30.966Z,54.94
2016-12-29T10:54:41.863Z,54.94
2016-12-29T10:55:52.756Z,54.85
2016-12-29T10:57:04.130Z,55.13
2016-12-29T10:58:15.459Z,54.56
2016-12-29T10:59:26.360Z,54.56
2016-12-29T11:00:37.261Z,54.56
2016-12-29T11:01:48.582Z,54.56
2016-12-29T11:02:59.536Z,54.56
2016-12-29T11:04:10.877Z,54.08
2016-12-29T11:05:21.778Z,54.37
2016-12-29T11:06:32.679Z,54.18
2016-12-29T11:07:43.572Z,54.08
2016-12-29T11:08:54.522Z,53.99
2016-12-29T11:10:05.847Z,54.08
2016-12-29T11:11:17.172Z,53.99
2016-12-29T11:12:28.070Z,54.21
2016-12-29T11:13:38.962Z,54.47
2016-12-29T11:14:49.907Z,54.27
2016-12-29T11:16:01.241Z,54.21
2016-12-29T11:17:12.151Z,54.3
2016-12-29T11:18:23.047Z,54.21
2016-12-29T11:19:34.364Z,54.11
2016-12-29T11:20:45.310Z,53.92
2016-12-29T11:21:56.203Z,53.92
2016-12-29T11:23:07.104Z,54.21
2016-12-29T11:24:18.421Z,53.82
2016-12-29T11:25:29.322Z,53.82
2016-12-29T11:26:40.263Z,53.82
2016-12-29T11:27:51.601Z,53.82
2016-12-29T11:29:02.498Z,53.82
2016-12-29T11:30:13.815Z,53.44
2016-12-29T11:31:25.144Z,53.44
2016-12-29T11:32:36.509Z,53.16
2016-12-29T11:33:47.398Z,53.34
2016-12-29T11:34:58.300Z,53.06
2016-12-29T11:36:09.621Z,52.99
2016-12-29T11:37:20.521Z,52.32
2016-12-29T11:38:31.464Z,52.51
2016-12-29T11:39:42.416Z,52.03
2016-12-29T11:40:53.317Z,52.42
2016-12-29T11:42:04.215Z,51.75
2016-12-29T11:43:15.540Z,51.75
2016-12-29T11:44:26.909Z,51.36
2016-12-29T11:45:37.814Z,51.46
2016-12-29T11:46:49.140Z,50.81
2016-12-29T11:48:00.469Z,50.98
2016-12-29T11:49:11.366Z,50.7
2016-12-29T11:50:22.314Z,51.01
2016-12-29T11:51:33.636Z,50.89
2016-12-29T11:52:44.541Z,50.62
2016-12-29T11:53:55.438Z,50.34
2016-12-29T11:55:06.799Z,50.52
2016-12-29T11:56:17.741Z,50.15
2016-12-29T11:57:29.062Z,49.95
2016-12-29T11:58:40.387Z,49.66
2016-12-29T11:59:51.288Z,49.57
2016-12-29T12:01:02.609Z,49.66
2016-12-29T12:02:13.982Z,49.95
2016-12-29T12:03:24.451Z,49.86
2016-12-29T12:04:35.341Z,50.05
2016-12-29T12:05:46.698Z,49.48
2016-12-29T12:06:58.015Z,49.57
2016-12-29T12:08:09.392Z,49.69
2016-12-29T12:09:20.297Z,49.5
2016-12-29T12:10:31.654Z,49.21
2016-12-29T12:11:42.133Z,49.21
2016-12-29T12:12:53.457Z,48.93
2016-12-29T12:14:04.402Z,48.64
2016-12-29T12:15:14.875Z,48.44
2016-12-29T12:16:25.768Z,48.64
2016-12-29T12:17:37.089Z,48.54
2016-12-29T12:18:47.995Z,48.44
2016-12-29T12:19:59.368Z,48.25
2016-12-29T12:21:10.693Z,48.64
2016-12-29T12:22:21.594Z,48.35
2016-12-29T12:23:32.495Z,47.97
2016-12-29T12:24:43.392Z,47.97
2016-12-29T12:25:54.333Z,48.35
2016-12-29T12:27:05.670Z,48.09
2016-12-29T12:28:16.987Z,48.16
2016-12-29T12:29:27.885Z,47.99
2016-12-29T12:30:38.785Z,47.99
2016-12-29T12:31:49.303Z,47.8
2016-12-29T12:33:00.200Z,47.61
2016-12-29T12:34:11.097Z,47.51
2016-12-29T12:35:22.414Z,47.61
2016-12-29T12:36:33.771Z,47.32
2016-12-29T12:37:44.832Z,47.42
2016-12-29T12:38:56.161Z,47.61
2016-12-29T12:40:07.063Z,47.22
2016-12-29T12:41:18.391Z,47.22
2016-12-29T12:42:29.284Z,47.03
2016-12-29T12:43:40.234Z,47.32
2016-12-29T12:44:51.563Z,47.03
2016-12-29T12:46:02.884Z,46.94
2016-12-29T12:47:13.781Z,46.94
2016-12-29T12:48:25.103Z,46.84
2016-12-29T12:49:36.059Z,47.32
2016-12-29T12:50:47.389Z,47.42
2016-12-29T12:51:58.289Z,46.94
2016-12-29T12:53:09.607Z,46.94
2016-12-29T12:54:20.076Z,46.46
2016-12-29T12:55:31.033Z,46.84
2016-12-29T12:56:41.934Z,46.94
2016-12-29T12:57:53.262Z,46.75
2016-12-29T12:59:04.584Z,46.46
2016-12-29T13:00:15.489Z,46.46
2016-12-29T13:01:26.450Z,46.36
2016-12-29T13:02:37.779Z,46.55
2016-12-29T13:03:49.096Z,46.26
2016-12-29T13:05:00.009Z,46.65
2016-12-29T13:06:10.910Z,46.55
2016-12-29T13:07:22.283Z,46.55
2016-12-29T13:08:33.613Z,46.65
2016-12-29T13:09:44.970Z,46.67
2016-12-29T13:10:56.291Z,46.75
2016-12-29T13:12:07.620Z,46.36
2016-12-29T13:13:18.569Z,46.75
2016-12-29T13:14:29.894Z,46.67
2016-12-29T13:15:40.787Z,46.77
2016-12-29T13:16:51.689Z,46.77
2016-12-29T13:18:03.018Z,46.77
2016-12-29T13:19:14.403Z,46.77
2016-12-29T13:20:25.300Z,46.67
2016-12-29T13:21:36.206Z,46.58
2016-12-29T13:22:47.138Z,46.77
2016-12-29T13:23:58.035Z,46.75
2016-12-29T13:25:08.989Z,46.55
2016-12-29T13:26:19.886Z,46.67
2016-12-29T13:27:30.827Z,46.67
2016-12-29T13:28:42.152Z,46.77
2016-12-29T13:29:53.045Z,46.67
2016-12-29T13:31:04.435Z,46.67
2016-12-29T13:32:15.332Z,46.67
2016-12-29T13:33:26.662Z,46.67
2016-12-29T13:34:37.983Z,46.77
2016-12-29T13:35:48.884Z,46.77
2016-12-29T13:37:00.469Z,46.39
2016-12-29T13:38:11.806Z,46.86
2016-12-29T13:39:23.139Z,46.39
2016-12-29T13:40:34.041Z,46.67
2016-12-29T13:41:44.941Z,46.86
2016-12-29T13:42:56.319Z,46.39
2016-12-29T13:44:07.652Z,46.58
2016-12-29T13:45:18.977Z,46.67
2016-12-29T13:46:30.303Z,46.48
2016-12-29T13:47:41.200Z,46.67
2016-12-29T13:48:52.569Z,46.67
2016-12-29T13:50:03.472Z,46.84
2016-12-29T13:51:14.799Z,46.77
2016-12-29T13:52:26.125Z,46.55
2016-12-29T13:53:37.450Z,46.55
2016-12-29T13:54:48.831Z,46.55
2016-12-29T13:55:59.734Z,46.55
2016-12-29T13:57:11.061Z,46.55
2016-12-29T13:58:22.391Z,46.65
2016-12-29T13:59:33.736Z,46.94
2016-12-29T14:00:44.677Z,47.03
2016-12-29T14:01:55.582Z,46.94
2016-12-29T14:03:06.907Z,47.32
2016-12-29T14:04:18.232Z,47.13
2016-12-29T14:05:29.130Z,47.03
2016-12-29T14:06:40.083Z,47.03
2016-12-29T14:07:51.412Z,47.03
2016-12-29T14:09:02.309Z,47.22
2016-12-29T14:10:13.634Z,47.42
2016-12-29T14:11:24.951Z,47.39
2016-12-29T14:12:36.329Z,47.11
2016-12-29T14:13:47.226Z,47.39
2016-12-29T14:14:58.131Z,47.49
2016-12-29T14:16:09.464Z,47.2
2016-12-29T14:17:20.805Z,47.39
2016-12-29T14:18:32.174Z,47.78
2016-12-29T14:19:43.079Z,47.58
2016-12-29T14:20:53.977Z,47.78
2016-12-29T14:22:05.302Z,47.49
2016-12-29T14:23:16.199Z,47.97
2016-12-29T14:24:27.576Z,48.16
2016-12-29T14:25:38.897Z,48.07
2016-12-29T14:26:50.439Z,48.35
2016-12-29T14:28:01.344Z,48.25
2016-12-29T14:29:12.248Z,48.25
2016-12-29T14:30:23.194Z,48.25
2016-12-29T14:31:33.663Z,48.25
2016-12-29T14:32:44.568Z,48.35
2016-12-29T14:33:55.881Z,48.25
2016-12-29T14:35:07.202Z,48.25
2016-12-29T14:36:18.159Z,48.23
2016-12-29T14:37:29.488Z,47.97
2016-12-29T14:38:40.381Z,48.04
2016-12-29T14:39:51.283Z,48.33
2016-12-29T14:41:02.183Z,48.52
2016-12-29T14:42:13.136Z,48.42
2016-12-29T14:43:24.462Z,48.61
2016-12-29T14:44:35.359Z,48.33
2016-12-29T14:45:46.684Z,48.33
2016-12-29T14:46:58.009Z,48.23
2016-12-29T14:48:08.958Z,48.42
2016-12-29T14:49:20.279Z,48.61
2016-12-29T14:50:31.172Z,48.52
2016-12-29T14:51:42.069Z,48.8
2016-12-29T14:52:53.398Z,48.61
2016-12-29T14:54:04.771Z,48.71
2016-12-29T14:55:16.096Z,48.33
2016-12-29T14:56:27.418Z,48.61
2016-12-29T14:57:38.351Z,48.71
2016-12-29T14:58:49.252Z,48.9
2016-12-29T15:00:00.625Z,49.38
2016-12-29T15:01:11.107Z,49.29
2016-12-29T15:02:22.444Z,49.29
2016-12-29T15:03:33.353Z,48.97
2016-12-29T15:04:44.259Z,48.97
2016-12-29T15:05:55.744Z,49.35
2016-12-29T15:07:07.065Z,49.45
2016-12-29T15:08:17.994Z,49.55
2016-12-29T15:09:29.315Z,49.45
2016-12-29T15:10:40.209Z,49.64
2016-12-29T15:11:51.582Z,50.02
2016-12-29T15:13:02.907Z,49.93
2016-12-29T15:14:13.802Z,49.55
2016-12-29T15:15:25.126Z,49.84
2016-12-29T15:16:36.451Z,49.84
2016-12-29T15:17:47.396Z,49.64
2016-12-29T15:18:58.322Z,49.84